Time;durP1;ratioP1;P1;durP2;ratioP2;P2;SDS_P1;SDS_P2;PMS_P1;PMS_P2;Temp;Humidity;BMP_temperature;BMP_pressure;BME280_temperature;BME280_humidity;BME280_pressure;Samples;Min_cycle;Max_cycle;Signal;HPM_P1;HPM_P2
2022/05/29 00:00:51;;;;;;;9.10;2.60;;;10.90;99.90;;;;;;5037662;28;19995;-85
2022/05/29 00:03:17;;;;;;;10.52;2.13;;;10.90;99.90;;;;;;5054577;28;20408;-86
2022/05/29 00:05:45;;;;;;;10.05;2.63;;;10.90;99.90;;;;;;5037678;28;20090;-85
2022/05/29 00:08:18;;;;;;;10.88;2.40;;;10.90;99.90;;;;;;5054106;28;20144;-87
2022/05/29 00:10:44;;;;;;;8.60;2.40;;;10.90;99.90;;;;;;5054097;28;20072;-87
2022/05/29 00:13:11;;;;;;;12.30;2.90;;;10.90;99.90;;;;;;5021545;28;20451;-87
2022/05/29 00:15:38;;;;;;;9.32;2.70;;;10.90;99.90;;;;;;5053678;28;20036;-86
2022/05/29 00:18:06;;;;;;;12.77;2.80;;;10.90;99.90;;;;;;5021491;28;20507;-87
2022/05/29 00:20:32;;;;;;;8.70;2.33;;;10.90;99.90;;;;;;5053971;28;20048;-86
2022/05/29 00:22:58;;;;;;;8.40;2.53;;;10.80;99.90;;;;;;5037644;28;20043;-86
2022/05/29 00:25:24;;;;;;;9.43;3.00;;;10.80;99.90;;;;;;5037787;28;20044;-86
2022/05/29 00:27:49;;;;;;;13.97;2.97;;;10.80;99.90;;;;;;5055015;28;20071;-86
2022/05/29 00:30:15;;;;;;;11.97;3.47;;;10.90;99.90;;;;;;5043687;28;20294;-86
2022/05/29 00:32:41;;;;;;;13.85;3.00;;;10.80;99.90;;;;;;5037354;28;20115;-85
2022/05/29 00:35:07;;;;;;;6.65;2.67;;;10.70;99.90;;;;;;5053973;28;20036;-85
2022/05/29 00:37:36;;;;;;;11.20;2.80;;;10.60;99.90;;;;;;5054374;28;20101;-85
2022/05/29 00:40:09;;;;;;;12.65;2.92;;;10.50;99.90;;;;;;5053798;28;20054;-85
2022/05/29 00:42:34;;;;;;;11.80;3.03;;;10.50;99.90;;;;;;5040349;28;20044;-84
2022/05/29 00:45:00;;;;;;;13.93;2.90;;;10.50;99.90;;;;;;5041456;28;20048;-84
2022/05/29 00:47:27;;;;;;;10.48;2.88;;;10.50;99.90;;;;;;5057665;28;20040;-84
2022/05/29 00:49:53;;;;;;;12.68;2.60;;;10.50;99.90;;;;;;5025504;28;20048;-85
2022/05/29 00:52:26;;;;;;;12.38;2.63;;;10.50;99.90;;;;;;5057571;28;20083;-85
2022/05/29 00:54:56;;;;;;;12.95;3.20;;;10.40;99.90;;;;;;5040860;28;20048;-85
2022/05/29 00:57:42;;;;;;;14.32;3.33;;;10.70;99.90;;;;;;5057318;28;20082;-85
2022/05/29 01:00:18;;;;;;;16.35;2.92;;;11.00;99.90;;;;;;5041019;28;20126;-84
2022/05/29 01:02:45;;;;;;;10.35;2.75;;;10.50;99.90;;;;;;5040514;28;20040;-86
2022/05/29 01:05:13;;;;;;;8.23;2.53;;;10.50;99.90;;;;;;5040313;28;20044;-85
2022/05/29 01:07:43;;;;;;;11.05;3.08;;;10.50;99.90;;;;;;5056979;28;20392;-86
2022/05/29 01:10:09;;;;;;;10.75;2.90;;;10.60;99.90;;;;;;5057418;28;20033;-86
2022/05/29 01:13:19;;;;;;;12.70;3.10;;;10.60;99.90;;;;;;5023558;28;20036;-85
2022/05/29 01:16:00;;;;;;;7.75;2.70;;;10.60;99.90;;;;;;5012949;28;20046;-86
2022/05/29 01:18:57;;;;;;;10.80;3.47;;;10.60;99.90;;;;;;5057453;28;20051;-85
2022/05/29 01:21:36;;;;;;;10.05;2.95;;;10.60;99.90;;;;;;5039940;28;20484;-85
2022/05/29 01:24:26;;;;;;;13.95;2.67;;;10.60;99.90;;;;;;5057225;28;20475;-85
2022/05/29 01:27:20;;;;;;;11.30;2.83;;;10.60;99.90;;;;;;5056745;28;20044;-86
2022/05/29 01:29:50;;;;;;;8.80;2.63;;;10.60;99.90;;;;;;5040250;28;20517;-85
2022/05/29 01:32:25;;;;;;;9.88;2.75;;;10.50;99.90;;;;;;5056966;28;20492;-86
2022/05/29 01:35:01;;;;;;;12.52;3.42;;;10.20;99.90;;;;;;5039968;28;20044;-86
2022/05/29 01:37:48;;;;;;;9.85;2.95;;;10.50;99.90;;;;;;5056586;28;20549;-86
2022/05/29 01:40:47;;;;;;;10.07;2.85;;;10.50;99.90;;;;;;5040407;28;20182;-85
2022/05/29 01:43:34;;;;;;;9.50;2.95;;;10.60;99.90;;;;;;5022147;28;20089;-85
2022/05/29 01:46:26;;;;;;;12.55;3.50;;;10.50;99.90;;;;;;5063955;28;20036;-85
2022/05/29 01:49:14;;;;;;;12.77;2.97;;;10.60;99.90;;;;;;5038789;28;20056;-85
2022/05/29 01:51:58;;;;;;;;;;;10.60;99.90;;;;;;5040391;28;20041;-86
2022/05/29 01:54:42;;;;;;;10.07;3.10;;;10.60;99.90;;;;;;5038449;28;20387;-85
2022/05/29 01:57:30;;;;;;;10.90;3.10;;;10.70;99.90;;;;;;5056501;28;20044;-85
2022/05/29 02:00:05;;;;;;;10.90;2.80;;;10.70;99.90;;;;;;5039897;28;20050;-85
2022/05/29 02:02:37;;;;;;;12.27;2.92;;;10.60;99.90;;;;;;5056522;28;20040;-84
2022/05/29 02:05:12;;;;;;;10.32;2.92;;;10.70;99.90;;;;;;5056792;28;20043;-85
2022/05/29 02:07:49;;;;;;;11.95;2.90;;;10.70;99.90;;;;;;5056267;28;20093;-85
2022/05/29 02:10:31;;;;;;;10.52;3.03;;;10.70;99.90;;;;;;5039616;28;20047;-86
2022/05/29 02:13:19;;;;;;;11.82;3.08;;;10.70;99.90;;;;;;5055653;28;20093;-86
2022/05/29 02:16:11;;;;;;;8.27;3.35;;;10.70;99.90;;;;;;5055816;28;20063;-86
2022/05/29 02:18:44;;;;;;;12.07;2.92;;;10.70;99.90;;;;;;5039315;28;20132;-86
2022/05/29 02:21:19;;;;;;;7.95;2.90;;;10.70;99.90;;;;;;5040189;28;20392;-85
2022/05/29 02:23:50;;;;;;;12.75;3.17;;;10.60;99.90;;;;;;5055952;28;20451;-86
2022/05/29 02:26:24;;;;;;;15.63;3.70;;;10.60;99.90;;;;;;5039105;28;20056;-85
2022/05/29 02:29:01;;;;;;;14.02;3.08;;;10.70;99.90;;;;;;5055207;28;20495;-86
2022/05/29 02:31:48;;;;;;;14.25;2.75;;;10.60;99.90;;;;;;5039564;28;20730;-85
2022/05/29 02:34:14;;;;;;;12.90;2.55;;;10.70;99.90;;;;;;5055903;28;20032;-85
2022/05/29 02:37:03;;;;;;;12.13;2.70;;;10.70;99.90;;;;;;5038948;28;20466;-85
2022/05/29 02:39:42;;;;;;;6.90;2.42;;;10.70;99.90;;;;;;5056284;28;20048;-86
2022/05/29 02:42:33;;;;;;;9.32;2.72;;;10.90;99.90;;;;;;5039490;28;20559;-86
2022/05/29 02:45:05;;;;;;;9.27;2.70;;;10.70;99.90;;;;;;5055520;28;20123;-86
2022/05/29 02:47:48;;;;;;;9.95;2.63;;;10.70;99.90;;;;;;5038867;28;20036;-86
2022/05/29 02:50:40;;;;;;;10.80;2.88;;;10.70;99.90;;;;;;5041590;28;20131;-86
2022/05/29 02:53:12;;;;;;;12.45;3.05;;;10.70;99.90;;;;;;5055577;28;20504;-85
2022/05/29 02:55:40;;;;;;;9.88;2.50;;;10.70;99.90;;;;;;5054876;28;20056;-86
2022/05/29 02:58:18;;;;;;;8.50;2.78;;;10.70;99.90;;;;;;5038684;28;20547;-85
2022/05/29 03:01:16;;;;;;;8.30;2.20;;;10.50;99.90;;;;;;5054683;28;20420;-85
2022/05/29 03:04:10;;;;;;;10.65;2.85;;;10.50;99.90;;;;;;5038418;28;20377;-85
2022/05/29 03:07:18;;;;;;;9.07;2.80;;;10.50;99.90;;;;;;5038511;28;20048;-85
2022/05/29 03:10:20;;;;;;;8.82;3.08;;;10.50;99.90;;;;;;5054803;28;20040;-85
2022/05/29 03:13:02;;;;;;;8.52;2.85;;;10.40;99.90;;;;;;5054898;28;20048;-86
2022/05/29 03:15:54;;;;;;;13.55;2.92;;;10.40;99.90;;;;;;5054793;28;20047;-85
2022/05/29 03:18:41;;;;;;;11.48;2.67;;;10.40;99.90;;;;;;5038392;28;20048;-85
2022/05/29 03:21:24;;;;;;;12.43;3.03;;;10.40;99.90;;;;;;5054892;28;20036;-85
2022/05/29 03:24:09;;;;;;;11.70;3.00;;;10.40;99.90;;;;;;5037854;28;20153;-85
2022/05/29 03:26:51;;;;;;;13.88;3.58;;;10.40;99.90;;;;;;5054896;28;20032;-86
2022/05/29 03:29:47;;;;;;;11.27;2.75;;;10.40;99.90;;;;;;5038260;28;20047;-86
2022/05/29 03:32:14;;;;;;;8.30;2.30;;;10.40;99.90;;;;;;5038368;28;20046;-86
2022/05/29 03:34:40;;;;;;;11.00;2.67;;;10.40;99.90;;;;;;5037392;28;20033;-86
2022/05/29 03:37:06;;;;;;;6.72;2.13;;;10.50;99.90;;;;;;5038252;28;20083;-86
2022/05/29 03:39:33;;;;;;;8.60;2.47;;;10.50;99.90;;;;;;5055046;28;20080;-85
2022/05/29 03:41:58;;;;;;;9.38;2.47;;;10.50;99.90;;;;;;5038151;28;20635;-85
2022/05/29 03:44:25;;;;;;;10.55;2.22;;;10.50;99.90;;;;;;5021515;28;20040;-86
2022/05/29 03:46:51;;;;;;;;;;;10.50;99.90;;;;;;5055120;28;20123;-85
2022/05/29 03:49:21;;;;;;;9.23;2.15;;;10.60;99.90;;;;;;5054754;28;19970;-86
2022/05/29 03:51:47;;;;;;;7.82;2.17;;;10.60;99.90;;;;;;5037832;28;20094;-85
2022/05/29 03:54:14;;;;;;;7.18;2.20;;;10.60;99.90;;;;;;5054351;28;20390;-86
2022/05/29 03:56:40;;;;;;;;;;;10.80;99.90;;;;;;5038036;28;20083;-86
2022/05/29 03:59:06;;;;;;;8.27;2.10;;;10.60;99.90;;;;;;5054278;28;19924;-86
2022/05/29 04:01:32;;;;;;;9.80;1.95;;;10.70;99.90;;;;;;5037702;28;20036;-86
2022/05/29 04:03:58;;;;;;;;;;;10.60;99.90;;;;;;5055071;28;20040;-85
2022/05/29 04:06:26;;;;;;;9.30;2.28;;;10.60;99.90;;;;;;5054341;28;19923;-85
2022/05/29 04:14:23;;;;;;;13.45;2.70;;;10.60;99.90;;;;;;5053988;28;20048;-85
2022/05/29 04:16:49;;;;;;;7.00;2.07;;;10.60;99.90;;;;;;5023223;28;20493;-85
2022/05/29 04:19:15;;;;;;;12.27;3.05;;;10.50;99.90;;;;;;5058355;28;20282;-85
2022/05/29 04:21:41;;;;;;;14.55;2.78;;;10.50;99.90;;;;;;5058021;28;20040;-86
2022/05/29 04:24:07;;;;;;;11.30;2.42;;;10.60;99.90;;;;;;5024877;28;20538;-86
2022/05/29 04:26:34;;;;;;;9.15;2.20;;;10.50;99.90;;;;;;5041757;28;20177;-86
2022/05/29 04:29:01;;;;;;;11.18;2.33;;;10.40;99.90;;;;;;5057862;28;20673;-86
2022/05/29 04:31:27;;;;;;;10.32;2.25;;;10.50;99.90;;;;;;5057776;28;20040;-86
2022/05/29 04:33:53;;;;;;;;;;;10.50;99.90;;;;;;5058466;28;20076;-86
2022/05/29 04:36:19;;;;;;;14.48;2.30;;;10.50;99.90;;;;;;5058565;28;20399;-85
2022/05/29 04:38:45;;;;;;;9.90;2.10;;;10.50;99.90;;;;;;5041168;28;20432;-86
2022/05/29 04:41:10;;;;;;;14.13;2.45;;;10.40;99.90;;;;;;5041386;28;20044;-85
2022/05/29 04:43:36;;;;;;;14.17;2.60;;;10.40;99.90;;;;;;5041589;28;20052;-85
2022/05/29 04:46:03;;;;;;;12.02;2.95;;;10.40;99.90;;;;;;5024338;28;20071;-86
2022/05/29 04:48:29;;;;;;;;;;;10.30;99.90;;;;;;5058161;28;20049;-86
2022/05/29 04:50:58;;;;;;;9.65;2.70;;;10.30;99.90;;;;;;5057060;28;20041;-86
2022/05/29 04:53:25;;;;;;;9.35;2.40;;;10.40;99.90;;;;;;5041565;28;20056;-86
2022/05/29 04:55:55;;;;;;;9.68;2.35;;;10.40;99.90;;;;;;5057112;28;20056;-85
2022/05/29 04:58:22;;;;;;;14.55;2.60;;;10.30;99.90;;;;;;5057942;28;20080;-86
2022/05/29 05:00:48;;;;;;;16.15;2.85;;;10.40;99.90;;;;;;5057126;28;20127;-86
2022/05/29 05:03:14;;;;;;;10.82;2.75;;;10.40;99.90;;;;;;5041484;28;20518;-85
2022/05/29 05:05:40;;;;;;;15.55;2.90;;;10.40;99.90;;;;;;5040749;28;20082;-86
2022/05/29 05:08:06;;;;;;;14.38;2.35;;;10.50;99.90;;;;;;5056802;28;20405;-86
2022/05/29 05:10:32;;;;;;;11.20;2.05;;;10.50;99.90;;;;;;5040877;28;20119;-85
2022/05/29 05:12:57;;;;;;;11.52;2.90;;;10.70;99.90;;;;;;5056984;28;20118;-86
2022/05/29 05:15:23;;;;;;;9.80;2.13;;;10.70;99.90;;;;;;5040929;28;20477;-85
2022/05/29 05:17:49;;;;;;;9.63;1.90;;;10.70;99.90;;;;;;5007781;28;20033;-86
2022/05/29 05:20:15;;;;;;;11.88;2.20;;;10.80;99.90;;;;;;5057527;28;20332;-87
2022/05/29 05:22:41;;;;;;;8.60;2.00;;;10.80;99.90;;;;;;5056981;28;20041;-87
2022/05/29 05:25:07;;;;;;;;;;;10.90;99.90;;;;;;5040269;28;20090;-86
2022/05/29 05:27:33;;;;;;;10.25;2.08;;;10.90;99.90;;;;;;5056882;28;19921;-86
2022/05/29 05:29:59;;;;;;;8.83;1.80;;;10.90;99.90;;;;;;5040280;28;20044;-86
2022/05/29 05:32:24;;;;;;;10.10;2.03;;;10.90;99.90;;;;;;5040302;28;20115;-85
2022/05/29 05:34:50;;;;;;;14.60;2.60;;;10.90;99.90;;;;;;5023468;28;20770;-85
2022/05/29 05:37:16;;;;;;;10.52;1.98;;;10.90;99.90;;;;;;5056915;28;20324;-86
2022/05/29 05:39:42;;;;;;;12.40;2.53;;;10.70;99.90;;;;;;5024171;28;20496;-86
2022/05/29 05:42:08;;;;;;;16.77;2.80;;;10.60;99.90;;;;;;5038357;28;20051;-85
2022/05/29 05:44:33;;;;;;;8.13;2.00;;;10.50;99.90;;;;;;5056859;28;20314;-87
2022/05/29 05:46:59;;;;;;;15.73;2.37;;;10.50;99.90;;;;;;5040195;28;20045;-87
2022/05/29 05:49:25;;;;;;;18.50;3.03;;;10.50;99.90;;;;;;5040217;28;20370;-85
2022/05/29 05:51:51;;;;;;;9.85;3.00;;;10.50;99.90;;;;;;5056498;28;20620;-86
2022/05/29 05:54:18;;;;;;;;;;;10.50;99.90;;;;;;5056974;28;21068;-86
2022/05/29 05:56:51;;;;;;;10.65;2.78;;;10.60;99.90;;;;;;5056368;28;20057;-87
2022/05/29 05:59:17;;;;;;;10.73;2.58;;;10.60;99.90;;;;;;5056553;28;20044;-85
2022/05/29 06:01:43;;;;;;;12.07;3.03;;;10.70;99.90;;;;;;5023717;28;20113;-84
2022/05/29 06:04:08;;;;;;;12.25;2.65;;;10.80;99.90;;;;;;5039290;28;20480;-86
2022/05/29 06:06:34;;;;;;;12.00;2.80;;;10.80;99.90;;;;;;5056721;28;20504;-85
2022/05/29 06:09:00;;;;;;;14.05;2.90;;;10.80;99.90;;;;;;5055942;28;20049;-86
2022/05/29 06:11:28;;;;;;;12.18;2.40;;;10.80;99.90;;;;;;5058426;28;20070;-87
2022/05/29 06:13:54;;;;;;;18.02;2.70;;;10.90;99.90;;;;;;5064918;28;20059;-86
2022/05/29 06:16:20;;;;;;;;;;;10.90;99.90;;;;;;5056955;28;20036;-86
2022/05/29 06:18:46;;;;;;;16.42;3.10;;;11.00;99.90;;;;;;5055955;28;19921;-86
2022/05/29 06:21:12;;;;;;;12.82;2.35;;;11.00;99.90;;;;;;5039155;28;20086;-85
2022/05/29 06:23:38;;;;;;;11.25;2.50;;;11.00;99.90;;;;;;5039290;28;20048;-86
2022/05/29 06:26:10;;;;;;;16.52;2.92;;;11.00;99.90;;;;;;5055838;28;20045;-85
2022/05/29 06:28:36;;;;;;;14.02;2.92;;;11.10;99.90;;;;;;5022722;28;20044;-86
2022/05/29 06:31:03;;;;;;;11.48;2.47;;;11.10;99.90;;;;;;5022851;28;20323;-87
2022/05/29 06:33:29;;;;;;;10.23;1.95;;;11.10;99.90;;;;;;5022918;28;20048;-86
2022/05/29 06:36:13;;;;;;;9.90;2.25;;;11.10;99.90;;;;;;5029628;28;20107;-86
2022/05/29 06:38:40;;;;;;;9.50;1.58;;;11.10;99.90;;;;;;5035517;28;20098;-86
2022/05/29 06:41:07;;;;;;;8.68;2.08;;;11.20;99.90;;;;;;5036017;28;20055;-86
2022/05/29 06:43:33;;;;;;;7.65;1.80;;;11.10;99.90;;;;;;5024979;28;20033;-86
2022/05/29 06:46:01;;;;;;;10.93;1.60;;;11.20;99.90;;;;;;5019441;28;20489;-86
2022/05/29 06:48:26;;;;;;;9.60;2.03;;;11.20;99.90;;;;;;5019286;28;20045;-86
2022/05/29 06:50:53;;;;;;;10.50;1.73;;;11.20;99.90;;;;;;5035638;28;20507;-86
2022/05/29 06:53:20;;;;;;;11.77;2.25;;;11.20;99.90;;;;;;5019040;28;20057;-86
2022/05/29 06:55:52;;;;;;;;;;;11.20;99.90;;;;;;5024829;28;20087;-86
2022/05/29 06:58:18;;;;;;;13.13;1.90;;;11.20;99.90;;;;;;5035689;28;20271;-85
2022/05/29 07:08:56;;;;;;;9.77;1.75;;;11.30;99.90;;;;;;5035489;28;20053;-86
2022/05/29 07:11:25;;;;;;;6.63;1.73;;;11.30;99.90;;;;;;5038331;28;20499;-86
2022/05/29 07:13:53;;;;;;;14.25;3.33;;;11.70;99.90;;;;;;5038207;28;20036;-86
2022/05/29 07:16:19;;;;;;;8.75;1.70;;;11.30;99.90;;;;;;5055020;28;20037;-85
2022/05/29 07:18:45;;;;;;;6.03;1.50;;;11.30;99.90;;;;;;5025478;28;20420;-87
2022/05/29 07:21:11;;;;;;;11.98;2.10;;;11.30;99.90;;;;;;5038263;28;20369;-85
2022/05/29 07:23:37;;;;;;;10.07;1.92;;;11.20;99.90;;;;;;5037919;28;20385;-87
2022/05/29 07:26:03;;;;;;;7.72;1.83;;;11.20;99.90;;;;;;5038098;28;20515;-86
2022/05/29 07:28:29;;;;;;;;;;;11.20;99.90;;;;;;5021984;28;20048;-86
2022/05/29 07:30:55;;;;;;;6.35;1.60;;;11.20;99.90;;;;;;5054872;28;19916;-86
2022/05/29 07:33:22;;;;;;;11.65;2.08;;;11.20;99.90;;;;;;5054479;28;20036;-86
2022/05/29 07:35:48;;;;;;;7.57;1.40;;;11.30;99.90;;;;;;5054364;28;20451;-86
2022/05/29 07:38:15;;;;;;;5.65;1.20;;;11.40;99.90;;;;;;5054845;28;20102;-86
2022/05/29 07:40:41;;;;;;;9.75;1.40;;;11.40;99.90;;;;;;5054240;28;20053;-85
2022/05/29 07:43:18;;;;;;;7.45;1.60;;;11.50;99.90;;;;;;5037504;28;20040;-85
2022/05/29 07:45:53;;;;;;;6.85;1.30;;;11.50;99.90;;;;;;5023168;28;20072;-86
2022/05/29 07:48:21;;;;;;;6.88;1.20;;;11.60;99.90;;;;;;5037579;28;20048;-86
2022/05/29 07:50:47;;;;;;;4.10;1.13;;;11.70;99.90;;;;;;5036736;28;20123;-87
2022/05/29 07:53:13;;;;;;;6.95;1.17;;;11.70;99.90;;;;;;5030933;28;20168;-87
2022/05/29 07:55:39;;;;;;;7.22;1.35;;;11.90;99.90;;;;;;5014710;28;20088;-86
2022/05/29 07:58:06;;;;;;;4.20;1.00;;;11.90;99.90;;;;;;5030746;28;20497;-86
2022/05/29 08:00:33;;;;;;;5.35;1.20;;;12.00;99.90;;;;;;4998431;28;20046;-86
2022/05/29 08:02:59;;;;;;;7.38;0.93;;;11.90;99.90;;;;;;5014725;28;20041;-86
2022/05/29 08:05:25;;;;;;;6.20;1.15;;;12.00;99.90;;;;;;5014843;28;20042;-86
2022/05/29 08:07:51;;;;;;;;;;;12.00;99.90;;;;;;5031202;28;20042;-86
2022/05/29 08:10:19;;;;;;;5.82;1.00;;;11.90;99.90;;;;;;5014597;28;19917;-85
2022/05/29 08:12:45;;;;;;;6.57;1.23;;;11.90;99.90;;;;;;5031018;28;20045;-86
2022/05/29 08:15:11;;;;;;;3.75;0.95;;;11.80;99.90;;;;;;4998635;28;20436;-86
2022/05/29 08:17:38;;;;;;;4.05;0.90;;;11.70;99.90;;;;;;4994604;28;20188;-87
2022/05/29 08:20:05;;;;;;;4.35;1.00;;;11.80;99.90;;;;;;4997882;28;20038;-87
2022/05/29 08:22:30;;;;;;;;;;;11.80;99.90;;;;;;5013450;28;20049;-86
2022/05/29 08:30:51;;;;;;;5.32;1.10;;;11.90;99.90;;;;;;5010805;28;20045;-86
2022/05/29 08:33:26;;;;;;;6.63;1.30;;;11.90;99.90;;;;;;4994937;28;20490;-87
2022/05/29 08:36:00;;;;;;;6.38;1.40;;;11.90;99.90;;;;;;4994450;28;20038;-86
2022/05/29 08:38:27;;;;;;;7.35;1.40;;;11.90;99.90;;;;;;5011054;28;20054;-87
2022/05/29 08:40:57;;;;;;;8.73;1.52;;;11.80;99.90;;;;;;4994780;28;20042;-86
2022/05/29 08:43:35;;;;;;;7.80;1.40;;;11.70;99.90;;;;;;4994883;28;20580;-85
2022/05/29 08:46:13;;;;;;;8.80;1.70;;;11.70;99.90;;;;;;5015456;28;20533;-86
2022/05/29 08:48:39;;;;;;;7.63;1.63;;;11.80;99.90;;;;;;5030604;28;20038;-86
2022/05/29 08:51:19;;;;;;;7.57;1.70;;;11.80;99.90;;;;;;4997701;28;20044;-86
2022/05/29 08:54:12;;;;;;;6.68;1.60;;;11.80;99.90;;;;;;5030484;28;20330;-86
2022/05/29 08:57:02;;;;;;;6.68;1.33;;;11.80;99.90;;;;;;4977995;28;20390;-86
2022/05/29 08:59:52;;;;;;;6.13;1.33;;;11.70;99.90;;;;;;5030342;28;20064;-86
2022/05/29 09:02:49;;;;;;;5.47;1.10;;;11.60;99.90;;;;;;5031581;28;20502;-85
2022/05/29 09:05:24;;;;;;;5.68;1.20;;;11.70;99.90;;;;;;5034045;28;20081;-86
2022/05/29 09:07:51;;;;;;;7.47;1.25;;;11.60;99.90;;;;;;5018263;28;20041;-85
2022/05/29 09:10:32;;;;;;;5.03;1.17;;;11.50;99.90;;;;;;5038209;28;20076;-87
2022/05/29 09:13:01;;;;;;;5.05;1.20;;;11.50;99.90;;;;;;5033708;28;20092;-86
2022/05/29 09:15:39;;;;;;;4.68;1.00;;;11.50;99.90;;;;;;5017146;28;20056;-86
2022/05/29 09:18:12;;;;;;;7.50;1.10;;;11.50;99.90;;;;;;5033928;28;20295;-86
2022/05/29 09:20:49;;;;;;;5.85;1.15;;;11.70;99.90;;;;;;5016843;28;20045;-87
2022/05/29 09:23:25;;;;;;;6.97;1.30;;;11.90;99.90;;;;;;5035202;28;20044;-86
2022/05/29 09:25:52;;;;;;;7.32;1.33;;;12.00;99.90;;;;;;5036730;28;20046;-86
2022/05/29 09:28:24;;;;;;;5.18;1.63;;;12.10;99.90;;;;;;5005200;28;20105;-85
2022/05/29 09:31:01;;;;;;;9.23;1.40;;;12.10;99.90;;;;;;5017899;28;20163;-86
2022/05/29 09:33:28;;;;;;;6.65;1.52;;;12.20;99.90;;;;;;5017004;28;20037;-86
2022/05/29 09:36:15;;;;;;;8.80;1.90;;;12.20;99.90;;;;;;5016875;28;20045;-87
2022/05/29 09:39:13;;;;;;;6.33;1.43;;;12.20;99.90;;;;;;5033266;28;20441;-86
2022/05/29 09:41:48;;;;;;;9.20;1.63;;;12.20;99.90;;;;;;5016150;28;20050;-86
2022/05/29 09:44:17;;;;;;;7.78;1.60;;;12.10;99.90;;;;;;5016803;28;20132;-86
2022/05/29 09:46:45;;;;;;;6.13;1.38;;;12.10;99.90;;;;;;5033303;28;20041;-86
2022/05/29 09:52:25;;;;;;;7.68;1.58;;;12.10;99.90;;;;;;5032951;28;20048;-86
2022/05/29 09:54:55;;;;;;;5.68;1.00;;;12.20;99.90;;;;;;5034499;28;20052;-87
2022/05/29 09:57:27;;;;;;;8.20;1.30;;;12.30;99.90;;;;;;5037087;28;20041;-86
2022/05/29 10:00:13;;;;;;;6.47;1.33;;;12.40;99.90;;;;;;5032857;28;20037;-86
2022/05/29 10:02:41;;;;;;;6.07;1.35;;;12.40;99.90;;;;;;5016764;28;20041;-86
2022/05/29 10:05:21;;;;;;;6.28;1.52;;;12.50;99.90;;;;;;5033016;28;20033;-86
2022/05/29 10:07:47;;;;;;;7.43;1.45;;;12.50;99.90;;;;;;5032835;28;20057;-86
2022/05/29 10:10:25;;;;;;;13.00;1.40;;;12.60;99.90;;;;;;4999997;28;20037;-85
2022/05/29 10:12:53;;;;;;;7.32;1.30;;;12.70;99.90;;;;;;5021029;28;20033;-85
2022/05/29 10:15:25;;;;;;;7.03;1.10;;;12.80;99.90;;;;;;5026748;28;20098;-86
2022/05/29 10:17:52;;;;;;;6.32;1.35;;;12.70;99.90;;;;;;5035882;28;20041;-86
2022/05/29 10:20:30;;;;;;;7.90;1.20;;;12.70;99.90;;;;;;5035845;28;20041;-86
2022/05/29 10:22:57;;;;;;;9.60;1.23;;;12.70;99.90;;;;;;5052504;28;20048;-86
2022/05/29 10:25:30;;;;;;;8.23;1.30;;;12.70;99.90;;;;;;5019606;28;20053;-86
2022/05/29 10:28:00;;;;;;;8.18;1.65;;;12.70;99.90;;;;;;5035433;28;20045;-86
2022/05/29 10:30:50;;;;;;;6.15;1.30;;;12.70;99.90;;;;;;5052642;28;20404;-86
2022/05/29 10:33:22;;;;;;;7.50;1.10;;;12.70;99.90;;;;;;5039073;28;20048;-86
2022/05/29 10:35:49;;;;;;;5.28;0.90;;;12.50;99.90;;;;;;5016237;28;20370;-85
2022/05/29 10:38:27;;;;;;;4.93;1.10;;;12.50;99.90;;;;;;5032490;28;20132;-86
2022/05/29 10:40:56;;;;;;;3.88;0.98;;;12.50;99.90;;;;;;5032064;28;20037;-85
2022/05/29 10:43:37;;;;;;;5.30;1.10;;;12.70;99.90;;;;;;5015886;28;20397;-86
2022/05/29 10:46:19;;;;;;;3.53;0.95;;;12.90;99.90;;;;;;5031956;28;20045;-86
2022/05/29 10:49:27;;;;;;;4.85;1.10;;;13.10;99.90;;;;;;5031993;28;20127;-86
2022/05/29 10:52:11;;;;;;;4.95;1.15;;;13.30;99.90;;;;;;5012520;28;20593;-86
2022/05/29 10:55:09;;;;;;;7.85;1.50;;;13.40;99.90;;;;;;4999996;28;20054;-86
2022/05/29 10:58:13;;;;;;;5.80;1.05;;;13.10;99.90;;;;;;4966561;28;20056;-86
2022/05/29 11:00:59;;;;;;;11.30;1.48;;;12.90;99.90;;;;;;4994605;28;20057;-86
2022/05/29 11:04:08;;;;;;;4.68;1.02;;;12.60;99.90;;;;;;5012502;28;20640;-86
2022/05/29 11:06:56;;;;;;;6.28;1.10;;;12.30;99.90;;;;;;5012201;28;20038;-87
2022/05/29 11:09:57;;;;;;;6.85;0.90;;;12.20;99.90;;;;;;5008248;28;20068;-85
2022/05/29 11:12:41;;;;;;;5.80;1.27;;;12.20;99.90;;;;;;4995492;28;20049;-85
2022/05/29 11:15:28;;;;;;;7.72;1.42;;;12.10;99.90;;;;;;5031483;28;20124;-85
2022/05/29 11:18:23;;;;;;;5.75;1.50;;;12.20;99.90;;;;;;5031148;28;20049;-86
2022/05/29 11:20:48;;;;;;;9.93;1.40;;;12.30;99.90;;;;;;5014717;28;20045;-85
2022/05/29 11:23:17;;;;;;;8.63;1.40;;;12.40;99.90;;;;;;5014805;28;20068;-86
2022/05/29 11:26:20;;;;;;;6.55;1.40;;;12.50;99.90;;;;;;5014712;28;20295;-86
2022/05/29 11:29:30;;;;;;;6.18;1.30;;;12.70;99.90;;;;;;5016846;28;20049;-86
2022/05/29 11:32:02;;;;;;;6.82;1.48;;;13.00;99.90;;;;;;4924938;29;20415;-85
2022/05/29 11:34:38;;;;;;;7.25;1.40;;;13.10;99.90;;;;;;4920233;29;20134;-86
2022/05/29 11:37:29;;;;;;;10.23;1.88;;;13.20;99.90;;;;;;4997851;28;20065;-86
2022/05/29 11:40:29;;;;;;;8.57;1.30;;;13.40;99.90;;;;;;4994754;28;20200;-86
2022/05/29 11:43:22;;;;;;;5.90;1.00;;;13.40;99.90;;;;;;4999958;28;20060;-85
2022/05/29 11:51:46;;;;;;;6.57;1.40;;;13.70;99.90;;;;;;5030812;28;20084;-86
2022/05/29 11:54:30;;;;;;;10.52;1.60;;;13.70;99.90;;;;;;5027084;28;20061;-86
2022/05/29 11:57:09;;;;;;;7.68;1.73;;;13.80;99.90;;;;;;5034110;28;20048;-85
2022/05/29 11:59:47;;;;;;;8.15;1.48;;;13.70;99.90;;;;;;5050768;28;20037;-85
2022/05/29 12:02:19;;;;;;;7.68;1.23;;;13.90;99.90;;;;;;4994632;28;20112;-86
2022/05/29 12:04:57;;;;;;;7.00;1.30;;;13.90;99.90;;;;;;4994947;28;20037;-86
2022/05/29 12:07:45;;;;;;;10.82;1.15;;;14.00;99.90;;;;;;4999443;28;20183;-86
2022/05/29 12:10:36;;;;;;;8.65;1.92;;;13.90;99.90;;;;;;5016718;28;20034;-85
2022/05/29 12:13:08;;;;;;;9.95;1.60;;;13.70;99.90;;;;;;5010843;28;20038;-86
2022/05/29 12:15:35;;;;;;;5.32;1.42;;;13.40;99.90;;;;;;5020790;28;20112;-86
2022/05/29 12:18:12;;;;;;;8.35;1.42;;;13.00;99.90;;;;;;5055278;28;20044;-86
2022/05/29 12:20:56;;;;;;;7.47;1.23;;;12.80;99.90;;;;;;5050877;28;20382;-86
2022/05/29 12:23:25;;;;;;;9.15;1.35;;;12.60;99.90;;;;;;5033960;28;20041;-87
2022/05/29 12:26:18;;;;;;;10.18;1.85;;;12.40;99.90;;;;;;5050752;28;20405;-85
2022/05/29 12:29:02;;;;;;;6.38;1.40;;;12.20;99.90;;;;;;5034013;28;20382;-86
2022/05/29 12:31:45;;;;;;;6.30;1.30;;;12.20;99.90;;;;;;5033651;28;20037;-86
2022/05/29 12:34:18;;;;;;;9.27;1.55;;;12.20;99.90;;;;;;5038242;28;20094;-86
2022/05/29 12:37:05;;;;;;;7.47;1.60;;;12.20;99.90;;;;;;5050723;28;20125;-86
2022/05/29 12:40:01;;;;;;;5.97;1.02;;;12.50;99.90;;;;;;5017571;28;20073;-86
2022/05/29 12:43:04;;;;;;;6.13;1.33;;;12.60;99.90;;;;;;5018161;28;20045;-87
2022/05/29 12:45:38;;;;;;;6.45;1.10;;;12.80;99.90;;;;;;5034134;28;20037;-85
2022/05/29 12:48:04;;;;;;;6.72;1.10;;;13.00;99.90;;;;;;5034043;28;20146;-87
2022/05/29 12:50:42;;;;;;;9.37;1.40;;;13.40;99.90;;;;;;5034094;28;20129;-86
2022/05/29 12:53:08;;;;;;;6.38;1.48;;;13.60;99.90;;;;;;5033643;28;20061;-86
2022/05/29 12:56:02;;;;;;;6.50;1.40;;;13.70;99.90;;;;;;5034271;28;20553;-85
2022/05/29 12:58:53;;;;;;;5.63;1.20;;;13.80;99.90;;;;;;5014316;28;20048;-86
2022/05/29 13:01:38;;;;;;;7.95;1.60;;;13.90;99.90;;;;;;5014173;28;20143;-86
2022/05/29 13:04:29;;;;;;;5.78;1.10;;;13.90;99.90;;;;;;5013964;28;20056;-86
2022/05/29 13:07:07;;;;;;;7.15;1.05;;;14.20;99.90;;;;;;4997508;28;20038;-86
2022/05/29 13:09:36;;;;;;;5.00;0.93;;;14.10;99.90;;;;;;5013972;28;20175;-86
2022/05/29 13:12:11;;;;;;;8.02;1.27;;;14.10;99.90;;;;;;4997510;28;20394;-86
2022/05/29 13:14:37;;;;;;;4.90;0.93;;;14.10;99.90;;;;;;5017066;28;20038;-86
2022/05/29 13:17:10;;;;;;;6.53;1.50;;;14.10;99.90;;;;;;4998056;28;20039;-87
2022/05/29 13:19:57;;;;;;;6.38;1.00;;;14.20;99.90;;;;;;4997680;28;20057;-87
2022/05/29 13:22:50;;;;;;;7.80;1.25;;;14.30;99.90;;;;;;4998406;28;20049;-86
2022/05/29 13:25:19;;;;;;;5.40;1.10;;;14.30;99.90;;;;;;5017681;28;20044;-86
2022/05/29 13:27:45;;;;;;;7.55;1.30;;;14.40;99.90;;;;;;5004047;28;20422;-86
2022/05/29 13:30:29;;;;;;;10.02;1.58;;;14.30;99.90;;;;;;5017551;28;20052;-86
2022/05/29 13:33:27;;;;;;;10.23;1.30;;;14.40;99.90;;;;;;5022424;28;20037;-86
2022/05/29 13:35:53;;;;;;;7.63;1.30;;;14.40;99.90;;;;;;5000614;28;20497;-85
2022/05/29 13:38:43;;;;;;;6.38;1.35;;;14.40;99.90;;;;;;5017169;28;20038;-85
2022/05/29 13:41:23;;;;;;;7.60;1.73;;;14.30;99.90;;;;;;5016767;28;20045;-86
2022/05/29 13:43:49;;;;;;;8.88;1.30;;;14.20;99.90;;;;;;5017164;28;20393;-86
2022/05/29 13:46:23;;;;;;;5.65;1.13;;;14.00;99.90;;;;;;5016654;28;20036;-86
2022/05/29 13:49:05;;;;;;;7.18;1.52;;;14.00;99.90;;;;;;5032087;28;20045;-86
2022/05/29 13:51:41;;;;;;;8.13;1.58;;;13.80;99.90;;;;;;5033493;28;20073;-86